Time;durP1;ratioP1;P1;durP2;ratioP2;P2;SDS_P1;SDS_P2;PMS_P1;PMS_P2;Temp;Humidity;BMP_temperature;BMP_pressure;BME280_temperature;BME280_humidity;BME280_pressure;Samples;Min_cycle;Max_cycle;Signal;HPM_P1;HPM_P2
2023/12/19 00:00:06;;;;;;;26.27;20.85;;;5.30;99.90;;;;;;5052106;28;20025;-63
2023/12/19 00:02:32;;;;;;;28.02;22.45;;;5.30;99.90;;;;;;5052452;28;20152;-63
2023/12/19 00:04:58;;;;;;;28.02;23.70;;;5.40;99.90;;;;;;5052071;28;20108;-62
2023/12/19 00:07:23;;;;;;;26.02;23.17;;;5.40;99.90;;;;;;5052001;28;20032;-63
2023/12/19 00:09:49;;;;;;;26.98;21.60;;;5.40;99.90;;;;;;5051895;28;20037;-63
2023/12/19 00:12:15;;;;;;;26.65;22.02;;;5.30;99.90;;;;;;5050660;28;20100;-63
2023/12/19 00:14:40;;;;;;;27.13;21.50;;;5.30;99.90;;;;;;5051722;28;20042;-63
2023/12/19 00:17:06;;;;;;;28.75;22.10;;;5.40;99.90;;;;;;5051916;28;20479;-63
2023/12/19 00:19:32;;;;;;;28.50;22.27;;;5.30;99.90;;;;;;5051685;28;20090;-63
2023/12/19 00:21:57;;;;;;;30.15;23.50;;;5.30;99.90;;;;;;5050628;28;20025;-63
2023/12/19 00:24:23;;;;;;;29.80;22.60;;;5.30;99.90;;;;;;5051658;28;20049;-62
2023/12/19 00:26:49;;;;;;;29.40;23.30;;;5.30;99.90;;;;;;5051408;28;20390;-63
2023/12/19 00:29:14;;;;;;;26.73;22.17;;;5.30;99.90;;;;;;5052283;28;20044;-63
2023/12/19 00:31:40;;;;;;;28.63;23.52;;;5.40;99.90;;;;;;5051810;28;20368;-63
2023/12/19 00:34:06;;;;;;;27.48;23.55;;;5.40;99.90;;;;;;5051610;28;20044;-63
2023/12/19 00:36:31;;;;;;;28.70;23.83;;;5.30;99.90;;;;;;5052080;28;20388;-62
2023/12/19 00:38:57;;;;;;;28.08;22.50;;;5.40;99.90;;;;;;5051566;28;20029;-63
2023/12/19 00:41:23;;;;;;;31.77;26.38;;;5.40;99.90;;;;;;5051350;28;20033;-64
2023/12/19 00:43:48;;;;;;;32.63;24.15;;;5.40;99.90;;;;;;5052020;28;20021;-63
2023/12/19 00:46:14;;;;;;;30.95;23.95;;;5.40;99.90;;;;;;5051584;28;20166;-63
2023/12/19 00:48:40;;;;;;;35.85;26.88;;;5.40;99.90;;;;;;5051673;28;20170;-63
2023/12/19 00:51:10;;;;;;;34.70;26.17;;;5.40;99.90;;;;;;5051697;28;20036;-63
2023/12/19 00:53:36;;;;;;;49.88;36.45;;;5.40;99.90;;;;;;5051583;28;20029;-63
2023/12/19 00:56:02;;;;;;;42.28;31.15;;;5.60;99.90;;;;;;5051314;28;20049;-63
2023/12/19 00:58:27;;;;;;;34.58;25.73;;;5.80;99.90;;;;;;5051736;28;20053;-63
2023/12/19 01:00:53;;;;;;;30.60;24.23;;;5.90;99.90;;;;;;5053067;28;20072;-63
2023/12/19 01:03:19;;;;;;;37.85;28.67;;;6.10;99.90;;;;;;5055478;28;20026;-63
2023/12/19 01:05:44;;;;;;;29.95;24.88;;;6.20;99.90;;;;;;5055107;28;20135;-63
2023/12/19 01:08:10;;;;;;;27.35;22.90;;;6.30;99.90;;;;;;5055227;28;20045;-63
2023/12/19 01:10:36;;;;;;;25.63;21.25;;;6.30;99.90;;;;;;5055480;28;20386;-63
2023/12/19 01:13:02;;;;;;;30.35;24.75;;;6.30;99.90;;;;;;5055248;28;20020;-63
2023/12/19 01:15:27;;;;;;;27.40;23.27;;;6.40;99.90;;;;;;5055079;28;20404;-62
2023/12/19 01:17:53;;;;;;;25.10;22.15;;;6.30;99.90;;;;;;5055045;28;20053;-63
2023/12/19 01:20:19;;;;;;;24.58;21.63;;;6.30;99.90;;;;;;5054715;28;20036;-63
2023/12/19 01:22:45;;;;;;;24.95;21.50;;;6.30;99.90;;;;;;5054554;28;20067;-63
2023/12/19 01:25:10;;;;;;;23.73;21.17;;;6.30;99.90;;;;;;5055107;28;20468;-63
2023/12/19 01:27:36;;;;;;;24.08;21.48;;;6.20;99.90;;;;;;5054933;28;20459;-63
2023/12/19 01:30:02;;;;;;;28.50;22.95;;;6.10;99.90;;;;;;5054986;28;20491;-63
2023/12/19 01:32:28;;;;;;;26.02;22.17;;;6.00;99.90;;;;;;5055201;28;20111;-63
2023/12/19 01:34:53;;;;;;;28.00;22.42;;;5.90;99.90;;;;;;5054555;28;20033;-62
2023/12/19 01:37:19;;;;;;;27.65;23.05;;;5.80;99.90;;;;;;5052981;28;20025;-62
2023/12/19 01:39:44;;;;;;;25.35;22.45;;;5.80;99.90;;;;;;5055138;28;20033;-63
2023/12/19 01:42:10;;;;;;;25.98;21.98;;;5.70;99.90;;;;;;5054711;28;20094;-63
2023/12/19 01:44:36;;;;;;;26.95;22.80;;;5.70;99.90;;;;;;5054470;28;20437;-63
2023/12/19 01:47:01;;;;;;;29.83;24.25;;;5.60;99.90;;;;;;5054449;28;20490;-62
2023/12/19 01:49:27;;;;;;;28.30;24.27;;;5.60;99.90;;;;;;5054378;28;20387;-63
2023/12/19 01:51:53;;;;;;;27.75;22.15;;;5.50;99.90;;;;;;5052785;28;20033;-63
2023/12/19 01:54:20;;;;;;;27.83;23.70;;;5.50;99.90;;;;;;5054440;28;20021;-63
2023/12/19 01:56:45;;;;;;;28.30;23.75;;;5.50;99.90;;;;;;5054243;28;20576;-63
2023/12/19 01:59:13;;;;;;;28.50;24.02;;;5.50;99.90;;;;;;5054247;28;20048;-63
2023/12/19 02:01:39;;;;;;;27.83;23.60;;;5.50;99.90;;;;;;5054599;28;20083;-63
2023/12/19 02:04:06;;;;;;;27.92;22.83;;;5.50;99.90;;;;;;5054099;28;20029;-63
2023/12/19 02:06:34;;;;;;;30.50;24.08;;;5.50;99.90;;;;;;5053733;28;20098;-63
2023/12/19 02:09:01;;;;;;;29.77;23.73;;;5.50;99.90;;;;;;5054109;28;20013;-63
2023/12/19 02:11:27;;;;;;;29.38;23.92;;;5.50;99.90;;;;;;5053918;28;20091;-63
2023/12/19 02:13:53;;;;;;;28.15;23.58;;;5.50;99.90;;;;;;5053887;28;20037;-63
2023/12/19 02:16:19;;;;;;;27.08;23.02;;;5.50;99.90;;;;;;5054258;28;20029;-63
2023/12/19 02:18:58;;;;;;;28.40;23.08;;;5.50;99.90;;;;;;5053668;28;20028;-63
2023/12/19 02:21:24;;;;;;;29.13;22.05;;;5.50;99.90;;;;;;5053685;28;20106;-63
2023/12/19 02:23:50;;;;;;;29.65;22.35;;;5.50;99.90;;;;;;5053101;28;20041;-63
2023/12/19 02:26:15;;;;;;;28.20;22.08;;;5.50;99.90;;;;;;5054060;28;20078;-62
2023/12/19 02:28:41;;;;;;;27.65;21.63;;;5.50;99.90;;;;;;5053636;28;20111;-63
2023/12/19 02:31:06;;;;;;;29.88;22.60;;;5.50;99.90;;;;;;5053689;28;20036;-63
2023/12/19 02:33:32;;;;;;;29.45;23.33;;;5.50;99.90;;;;;;5053889;28;20029;-63
2023/12/19 02:35:58;;;;;;;28.88;21.95;;;5.50;99.90;;;;;;5053274;28;20037;-63
2023/12/19 02:38:23;;;;;;;28.23;22.95;;;5.50;99.90;;;;;;5053454;28;20028;-63
2023/12/19 02:40:49;;;;;;;29.17;23.25;;;5.50;99.90;;;;;;5053488;28;20025;-63
2023/12/19 02:43:15;;;;;;;26.00;22.33;;;5.40;99.90;;;;;;5053326;28;20021;-63
2023/12/19 02:45:40;;;;;;;29.33;22.35;;;5.50;99.90;;;;;;5053684;28;20028;-63
2023/12/19 02:48:06;;;;;;;28.55;21.88;;;5.50;99.90;;;;;;5053394;28;20033;-63
2023/12/19 02:50:32;;;;;;;29.95;22.20;;;5.50;99.90;;;;;;5052889;28;20057;-63
2023/12/19 02:52:57;;;;;;;27.88;21.67;;;5.40;99.90;;;;;;5053342;28;20017;-63
2023/12/19 02:55:23;;;;;;;32.15;23.33;;;5.50;99.90;;;;;;5053035;28;20041;-62
2023/12/19 02:57:49;;;;;;;27.67;22.58;;;5.50;99.90;;;;;;5053096;28;20025;-63
2023/12/19 03:00:15;;;;;;;30.17;23.45;;;5.60;99.90;;;;;;5053202;28;20047;-63
2023/12/19 03:02:44;;;;;;;24.92;20.95;;;5.70;99.90;;;;;;5053095;28;20395;-63
2023/12/19 03:05:09;;;;;;;25.45;20.27;;;5.90;99.90;;;;;;5052607;28;20115;-63
2023/12/19 03:07:35;;;;;;;24.75;20.10;;;6.10;99.90;;;;;;5053415;28;20115;-63
2023/12/19 03:10:05;;;;;;;24.23;20.17;;;6.20;99.90;;;;;;5052788;28;20036;-63
2023/12/19 03:12:31;;;;;;;21.90;18.52;;;6.20;99.90;;;;;;5052741;28;20055;-63
2023/12/19 03:14:57;;;;;;;23.00;19.83;;;6.20;99.90;;;;;;5052519;28;20053;-63
2023/12/19 03:17:22;;;;;;;23.48;19.10;;;6.20;99.90;;;;;;5052646;28;20100;-63
2023/12/19 03:19:48;;;;;;;23.02;19.17;;;6.40;99.90;;;;;;5052541;28;20029;-63
2023/12/19 03:22:14;;;;;;;21.55;18.30;;;6.40;99.90;;;;;;5052787;28;20424;-63
2023/12/19 03:24:40;;;;;;;21.85;18.55;;;6.40;99.90;;;;;;5051976;28;20060;-63
2023/12/19 03:27:06;;;;;;;22.27;18.67;;;6.40;99.90;;;;;;5052578;28;20396;-63
2023/12/19 03:29:32;;;;;;;22.52;18.83;;;6.20;99.90;;;;;;5052620;28;20117;-62
2023/12/19 03:31:58;;;;;;;23.85;19.90;;;6.00;99.90;;;;;;5052717;28;20032;-63
2023/12/19 03:34:24;;;;;;;23.67;19.67;;;6.00;99.90;;;;;;5052084;28;20033;-62
2023/12/19 03:36:49;;;;;;;22.15;19.30;;;5.90;99.90;;;;;;5052528;28;20060;-63
2023/12/19 03:39:15;;;;;;;22.92;20.13;;;5.90;99.90;;;;;;5052260;28;20130;-63
2023/12/19 03:41:41;;;;;;;22.95;20.23;;;5.80;99.90;;;;;;5052405;28;20035;-63
2023/12/19 03:44:06;;;;;;;23.20;19.23;;;5.70;99.90;;;;;;5052728;28;20100;-63
2023/12/19 03:46:32;;;;;;;23.65;20.33;;;5.70;99.90;;;;;;5052140;28;20021;-62
2023/12/19 03:48:57;;;;;;;23.95;20.17;;;5.70;99.90;;;;;;5050944;28;20025;-63
2023/12/19 03:51:23;;;;;;;24.70;20.45;;;5.70;99.90;;;;;;5052194;28;20029;-63
2023/12/19 03:53:49;;;;;;;23.65;20.55;;;5.60;99.90;;;;;;5052131;28;20471;-63
2023/12/19 03:56:14;;;;;;;25.33;21.52;;;5.60;99.90;;;;;;5052582;28;20028;-63
2023/12/19 03:58:40;;;;;;;23.48;20.00;;;5.60;99.90;;;;;;5052202;28;20108;-63
2023/12/19 04:01:06;;;;;;;24.10;20.17;;;5.60;99.90;;;;;;5051906;28;20111;-63
2023/12/19 04:03:32;;;;;;;25.42;20.70;;;5.60;99.90;;;;;;5052180;28;20759;-62
2023/12/19 04:05:57;;;;;;;25.23;21.52;;;5.60;99.90;;;;;;5051950;28;20052;-63
2023/12/19 04:08:23;;;;;;;24.50;20.35;;;5.60;99.90;;;;;;5052024;28;20025;-63
2023/12/19 04:10:48;;;;;;;27.85;22.10;;;5.60;99.90;;;;;;5052073;28;20090;-63
2023/12/19 04:13:14;;;;;;;23.33;20.73;;;5.60;99.90;;;;;;5051921;28;20040;-63
2023/12/19 04:15:40;;;;;;;23.65;20.02;;;5.60;99.90;;;;;;5051846;28;20037;-63
2023/12/19 04:18:05;;;;;;;24.02;20.15;;;5.60;99.90;;;;;;5051560;28;20104;-62
2023/12/19 04:20:31;;;;;;;25.95;20.27;;;5.60;99.90;;;;;;5050687;28;20043;-63
2023/12/19 04:22:57;;;;;;;25.63;19.85;;;5.60;99.90;;;;;;5052034;28;20078;-63
2023/12/19 04:25:22;;;;;;;24.77;18.98;;;5.60;99.90;;;;;;5051550;28;20060;-63
2023/12/19 04:27:48;;;;;;;25.67;21.13;;;5.50;99.90;;;;;;5052219;28;20100;-63
2023/12/19 04:30:14;;;;;;;24.88;20.67;;;5.60;99.90;;;;;;5051770;28;20029;-63
2023/12/19 04:32:40;;;;;;;26.00;20.08;;;5.60;99.90;;;;;;5051442;28;20021;-62
2023/12/19 04:35:06;;;;;;;26.98;21.33;;;5.60;99.90;;;;;;5051958;28;20410;-62
2023/12/19 04:37:32;;;;;;;24.30;20.48;;;5.60;99.90;;;;;;5055678;28;20029;-62
2023/12/19 04:39:58;;;;;;;25.73;20.80;;;5.60;99.90;;;;;;5055665;28;20033;-63
2023/12/19 04:42:24;;;;;;;25.38;19.63;;;5.60;99.90;;;;;;5055892;28;20092;-63
2023/12/19 04:44:49;;;;;;;27.17;20.80;;;5.50;99.90;;;;;;5055589;28;20064;-63
2023/12/19 04:47:15;;;;;;;27.98;19.67;;;5.50;99.90;;;;;;5055214;28;20432;-63
2023/12/19 04:49:42;;;;;;;27.40;20.85;;;5.60;99.90;;;;;;5056107;28;20035;-63
2023/12/19 04:52:07;;;;;;;27.90;20.27;;;5.60;99.90;;;;;;5055832;28;20027;-62
2023/12/19 04:54:33;;;;;;;26.02;20.02;;;5.60;99.90;;;;;;5055394;28;20477;-63
2023/12/19 04:56:59;;;;;;;26.50;20.88;;;5.50;99.90;;;;;;5055420;28;20029;-63
2023/12/19 04:59:24;;;;;;;25.60;21.20;;;5.50;99.90;;;;;;5055335;28;20029;-63
2023/12/19 05:01:50;;;;;;;26.83;20.83;;;5.50;99.90;;;;;;5055501;28;20132;-62
2023/12/19 05:04:16;;;;;;;27.40;21.02;;;5.60;99.90;;;;;;5055319;28;20025;-63
2023/12/19 05:06:42;;;;;;;26.58;20.65;;;5.80;99.90;;;;;;5055685;28;20033;-63
2023/12/19 05:09:08;;;;;;;23.67;19.63;;;6.00;99.90;;;;;;5055100;28;20117;-63
2023/12/19 05:11:34;;;;;;;25.67;20.60;;;6.10;99.90;;;;;;5055193;28;20108;-63
2023/12/19 05:14:00;;;;;;;24.20;20.52;;;6.20;99.90;;;;;;5055358;28;20116;-63
2023/12/19 05:16:25;;;;;;;23.77;19.55;;;6.40;99.90;;;;;;5054600;28;20470;-62
2023/12/19 05:18:51;;;;;;;22.95;19.45;;;6.40;99.90;;;;;;5055142;28;20079;-63
2023/12/19 05:21:20;;;;;;;21.60;19.23;;;6.50;99.90;;;;;;5054900;28;20068;-63
2023/12/19 05:23:46;;;;;;;21.48;18.60;;;6.60;99.90;;;;;;5054690;28;20037;-63
2023/12/19 05:26:12;;;;;;;21.20;16.85;;;6.50;99.90;;;;;;5055173;28;20024;-63
2023/12/19 05:28:39;;;;;;;21.13;18.55;;;6.40;99.90;;;;;;5054739;28;20028;-62
2023/12/19 05:31:05;;;;;;;20.67;18.10;;;6.50;99.90;;;;;;5054584;28;20443;-63
2023/12/19 05:33:33;;;;;;;21.35;18.38;;;6.50;99.90;;;;;;5054698;28;20044;-63
2023/12/19 05:35:59;;;;;;;21.00;18.05;;;6.40;99.90;;;;;;5054736;28;20044;-62
2023/12/19 05:38:25;;;;;;;19.98;17.83;;;6.20;99.90;;;;;;5054651;28;20017;-63
2023/12/19 05:40:56;;;;;;;22.73;18.73;;;6.00;99.90;;;;;;5054660;28;20040;-62
2023/12/19 05:43:22;;;;;;;21.38;18.60;;;6.00;99.90;;;;;;5054925;28;20051;-63
2023/12/19 05:45:48;;;;;;;22.40;19.52;;;6.00;99.90;;;;;;5053983;28;20499;-63
2023/12/19 05:48:13;;;;;;;19.85;17.42;;;6.00;99.90;;;;;;5054242;28;20503;-63
2023/12/19 05:50:39;;;;;;;20.23;17.95;;;5.90;99.90;;;;;;5054390;28;20044;-63
2023/12/19 05:53:04;;;;;;;23.25;18.05;;;5.90;99.90;;;;;;5054913;28;20024;-62
2023/12/19 05:55:30;;;;;;;20.33;17.88;;;5.90;99.90;;;;;;5054484;28;20063;-63
2023/12/19 05:57:56;;;;;;;20.77;18.27;;;5.80;99.90;;;;;;5054214;28;20021;-63
2023/12/19 06:00:22;;;;;;;19.10;17.05;;;5.80;99.90;;;;;;5053942;28;20032;-63
2023/12/19 06:02:50;;;;;;;21.15;18.05;;;5.80;99.90;;;;;;5054301;28;20095;-63
2023/12/19 06:05:17;;;;;;;22.77;19.05;;;5.80;99.90;;;;;;5054074;28;20466;-63
2023/12/19 06:07:43;;;;;;;19.40;17.13;;;5.80;99.90;;;;;;5054442;28;20025;-63
2023/12/19 06:10:10;;;;;;;19.95;17.73;;;5.80;99.90;;;;;;5054064;28;20150;-63
2023/12/19 06:12:36;;;;;;;22.08;18.90;;;5.70;99.90;;;;;;5054003;28;20115;-63
2023/12/19 06:15:08;;;;;;;22.73;19.83;;;5.70;99.90;;;;;;5052692;28;20591;-63
2023/12/19 06:17:35;;;;;;;21.02;17.55;;;5.80;99.90;;;;;;5053825;28;20051;-63
2023/12/19 06:20:01;;;;;;;21.10;18.38;;;5.70;99.90;;;;;;5053668;28;20032;-63
2023/12/19 06:22:27;;;;;;;22.33;18.92;;;5.70;99.90;;;;;;5053903;28;20032;-62
2023/12/19 06:24:53;;;;;;;21.42;18.38;;;5.70;99.90;;;;;;5053688;28;20191;-63
2023/12/19 06:27:19;;;;;;;22.83;20.42;;;5.70;99.90;;;;;;5053328;28;20504;-62
2023/12/19 06:29:44;;;;;;;22.42;19.50;;;5.80;99.90;;;;;;5053871;28;20031;-63
2023/12/19 06:32:11;;;;;;;21.85;19.48;;;5.80;99.90;;;;;;5053708;28;20021;-63
2023/12/19 06:34:37;;;;;;;20.13;17.73;;;5.80;99.90;;;;;;5053769;28;20037;-63
2023/12/19 06:37:03;;;;;;;20.77;17.50;;;5.80;99.90;;;;;;5053501;28;20036;-62
2023/12/19 06:39:29;;;;;;;19.58;17.45;;;5.80;99.90;;;;;;5053262;28;20025;-63
2023/12/19 06:41:55;;;;;;;19.30;17.05;;;5.70;99.90;;;;;;5053227;28;20147;-63
2023/12/19 06:44:21;;;;;;;18.98;16.98;;;5.70;99.90;;;;;;5053697;28;20471;-63
2023/12/19 06:46:49;;;;;;;19.15;16.90;;;5.70;99.90;;;;;;5053446;28;20029;-63
2023/12/19 06:49:21;;;;;;;18.05;16.15;;;5.70;99.90;;;;;;5053269;28;20032;-62
2023/12/19 06:51:47;;;;;;;18.38;16.48;;;5.70;99.90;;;;;;5053267;28;20107;-63
2023/12/19 06:54:13;;;;;;;17.92;16.02;;;5.80;99.90;;;;;;5053516;28;20540;-63
2023/12/19 06:56:40;;;;;;;18.17;15.85;;;5.80;99.90;;;;;;5052933;28;20039;-63
2023/12/19 06:59:06;;;;;;;18.80;16.23;;;5.80;99.90;;;;;;5052330;28;20078;-63
2023/12/19 07:01:32;;;;;;;17.92;15.90;;;5.80;99.90;;;;;;5053097;28;20037;-63
2023/12/19 07:03:58;;;;;;;18.45;16.35;;;5.80;99.90;;;;;;5053350;28;20028;-63
2023/12/19 07:06:25;;;;;;;18.33;15.85;;;5.70;99.90;;;;;;5052981;28;20036;-63
2023/12/19 07:08:50;;;;;;;17.15;15.18;;;5.80;99.90;;;;;;5052886;28;20116;-65
2023/12/19 07:11:16;;;;;;;17.73;15.93;;;6.00;99.90;;;;;;5052503;28;20107;-65
2023/12/19 07:13:43;;;;;;;16.67;14.98;;;6.20;99.90;;;;;;5052777;28;20438;-64
2023/12/19 07:16:14;;;;;;;16.25;14.60;;;6.40;99.90;;;;;;5052642;28;20082;-65
2023/12/19 07:18:43;;;;;;;16.15;14.23;;;6.50;99.90;;;;;;5052817;28;20140;-65
2023/12/19 07:21:17;;;;;;;15.65;13.88;;;6.50;99.90;;;;;;5052566;28;20119;-65
2023/12/19 07:23:43;;;;;;;16.02;14.35;;;6.60;99.90;;;;;;5052372;28;20045;-65
2023/12/19 07:26:26;;;;;;;15.48;13.88;;;6.60;99.90;;;;;;5052605;28;20043;-65
2023/12/19 07:28:57;;;;;;;18.65;14.00;;;6.60;99.90;;;;;;5052583;28;20025;-65
2023/12/19 07:31:25;;;;;;;15.32;13.73;;;6.60;99.90;;;;;;5052455;28;20032;-65
2023/12/19 07:33:58;;;;;;;15.02;13.40;;;6.70;99.90;;;;;;5052829;28;20403;-65
2023/12/19 07:36:24;;;;;;;15.35;13.85;;;6.70;99.90;;;;;;5052529;28;20074;-65
2023/12/19 07:38:54;;;;;;;16.05;14.35;;;6.50;99.90;;;;;;5052417;28;20064;-65
2023/12/19 07:41:22;;;;;;;15.10;13.60;;;6.40;99.90;;;;;;5052039;28;20029;-65
2023/12/19 07:43:48;;;;;;;18.67;14.02;;;6.30;99.90;;;;;;5052344;28;20059;-65
2023/12/19 07:46:14;;;;;;;15.95;14.35;;;6.30;99.90;;;;;;5052737;28;20491;-66
2023/12/19 07:48:40;;;;;;;16.52;14.80;;;6.20;99.90;;;;;;5052513;28;20033;-65
2023/12/19 07:51:07;;;;;;;16.52;14.82;;;6.20;99.90;;;;;;5051883;28;20056;-65
2023/12/19 07:53:33;;;;;;;18.02;16.20;;;6.10;99.90;;;;;;5051504;28;20032;-66
2023/12/19 07:56:04;;;;;;;17.05;15.30;;;6.10;99.90;;;;;;5049695;28;20025;-66
2023/12/19 07:58:30;;;;;;;17.40;15.55;;;6.00;99.90;;;;;;5050007;28;20033;-66
2023/12/19 08:00:57;;;;;;;15.88;14.20;;;6.10;99.90;;;;;;5051085;28;20029;-64
2023/12/19 08:03:27;;;;;;;17.52;15.82;;;6.10;99.90;;;;;;5051673;28;20028;-64
2023/12/19 08:05:55;;;;;;;18.20;15.65;;;6.00;99.90;;;;;;5051074;28;20059;-64
2023/12/19 08:08:22;;;;;;;16.83;15.02;;;6.00;99.90;;;;;;5051119;28;20033;-64
2023/12/19 08:10:48;;;;;;;16.80;15.00;;;6.00;99.90;;;;;;5050998;28;20510;-64
2023/12/19 08:13:14;;;;;;;15.80;14.10;;;6.00;99.90;;;;;;5050768;28;20021;-66
2023/12/19 08:15:42;;;;;;;15.75;14.15;;;6.10;99.90;;;;;;5050703;28;20460;-66
2023/12/19 08:18:09;;;;;;;14.60;12.80;;;6.10;99.90;;;;;;5050805;28;20029;-66
2023/12/19 08:20:35;;;;;;;15.70;13.77;;;6.10;99.90;;;;;;5050704;28;20032;-68
2023/12/19 08:23:01;;;;;;;15.15;13.40;;;6.10;99.90;;;;;;5050975;28;20033;-66
2023/12/19 08:25:28;;;;;;;15.32;13.07;;;6.30;99.90;;;;;;5050768;28;20075;-66
2023/12/19 08:27:54;;;;;;;14.52;12.93;;;6.30;99.90;;;;;;5050003;28;20021;-65
2023/12/19 08:30:20;;;;;;;14.95;13.43;;;6.30;99.90;;;;;;5050696;28;20127;-66
2023/12/19 08:32:45;;;;;;;15.05;13.52;;;6.20;99.90;;;;;;5051068;28;20021;-67
2023/12/19 08:35:11;;;;;;;13.35;12.02;;;6.20;99.90;;;;;;5050575;28;20506;-66
2023/12/19 08:37:37;;;;;;;13.82;12.05;;;6.20;99.90;;;;;;5051421;28;20100;-66
2023/12/19 08:40:03;;;;;;;14.00;12.60;;;6.30;99.90;;;;;;5050521;28;20037;-66
2023/12/19 08:42:30;;;;;;;15.60;13.02;;;6.30;99.90;;;;;;5050245;28;20498;-66
2023/12/19 08:44:55;;;;;;;13.07;11.68;;;6.30;99.90;;;;;;5050768;28;20036;-66
2023/12/19 08:47:22;;;;;;;13.57;12.02;;;6.30;99.90;;;;;;5050732;28;20541;-66
2023/12/19 08:49:52;;;;;;;13.10;11.52;;;6.30;99.90;;;;;;5051117;28;20021;-66
2023/12/19 08:52:21;;;;;;;14.02;12.52;;;6.30;99.90;;;;;;5050408;28;20506;-66
2023/12/19 08:54:47;;;;;;;14.40;12.00;;;6.30;99.90;;;;;;5050610;28;20056;-67
2023/12/19 08:57:14;;;;;;;13.20;11.85;;;6.30;99.90;;;;;;5050481;28;20476;-66
2023/12/19 08:59:40;;;;;;;12.57;11.07;;;6.30;99.90;;;;;;5050966;28;20060;-66
2023/12/19 09:02:06;;;;;;;11.90;10.70;;;6.30;99.90;;;;;;5050568;28;20075;-67
2023/12/19 09:04:32;;;;;;;12.60;11.40;;;6.40;99.90;;;;;;5050582;28;20021;-66
2023/12/19 09:06:59;;;;;;;11.98;10.88;;;6.40;99.90;;;;;;5050711;28;20025;-66
2023/12/19 09:09:24;;;;;;;12.10;10.90;;;6.40;99.90;;;;;;5050599;28;20456;-66
2023/12/19 09:11:50;;;;;;;13.15;10.50;;;6.40;99.90;;;;;;5050560;28;20100;-66
2023/12/19 09:14:17;;;;;;;12.38;11.18;;;6.40;99.90;;;;;;5050329;28;20406;-66
2023/12/19 09:16:43;;;;;;;11.60;10.40;;;6.70;99.90;;;;;;5050623;28;20049;-66
2023/12/19 09:19:09;;;;;;;10.75;9.65;;;6.90;99.90;;;;;;5050477;28;20479;-66
2023/12/19 09:21:35;;;;;;;9.98;9.07;;;7.10;99.90;;;;;;5050906;28;20152;-66
2023/12/19 09:24:00;;;;;;;10.48;9.15;;;7.20;99.90;;;;;;5053899;28;20576;-67
2023/12/19 09:26:27;;;;;;;9.73;8.82;;;7.20;99.90;;;;;;5054000;28;20078;-65
2023/12/19 09:28:55;;;;;;;10.45;9.00;;;7.20;99.90;;;;;;5054099;28;20050;-66
2023/12/19 09:31:21;;;;;;;11.65;8.80;;;7.30;99.90;;;;;;5054226;28;20033;-66
2023/12/19 09:33:47;;;;;;;12.25;8.90;;;7.40;99.90;;;;;;5053669;28;20028;-66
2023/12/19 09:36:23;;;;;;;11.38;9.98;;;7.50;99.90;;;;;;5053534;28;20029;-66
2023/12/19 09:38:49;;;;;;;12.07;9.45;;;7.40;99.90;;;;;;5053832;28;20493;-66
2023/12/19 09:41:15;;;;;;;13.45;10.07;;;7.50;99.90;;;;;;5053723;28;20052;-66
2023/12/19 09:43:41;;;;;;;15.00;9.25;;;7.40;99.90;;;;;;5053818;28;20506;-66
2023/12/19 09:46:07;;;;;;;11.60;9.27;;;7.30;99.90;;;;;;5053993;28;20029;-66
2023/12/19 09:48:35;;;;;;;9.73;8.43;;;7.20;99.90;;;;;;5053302;28;20040;-66
2023/12/19 09:51:04;;;;;;;9.02;8.23;;;7.20;99.90;;;;;;5053743;28;20506;-66
2023/12/19 09:53:34;;;;;;;8.70;7.90;;;7.10;99.90;;;;;;5053419;28;20036;-66
2023/12/19 09:56:01;;;;;;;8.80;8.00;;;7.10;99.90;;;;;;5053559;28;20032;-66
2023/12/19 09:58:28;;;;;;;9.43;8.43;;;7.10;99.90;;;;;;5053572;28;20021;-66
2023/12/19 10:00:58;;;;;;;9.20;8.30;;;7.00;99.90;;;;;;5053393;28;20568;-66
2023/12/19 10:03:23;;;;;;;8.65;7.95;;;7.00;99.90;;;;;;5053165;28;20450;-66
2023/12/19 10:05:49;;;;;;;9.02;8.23;;;7.10;99.90;;;;;;5052922;28;20028;-66
2023/12/19 10:08:15;;;;;;;8.68;7.88;;;7.00;99.90;;;;;;5053326;28;20410;-66
2023/12/19 10:10:55;;;;;;;9.30;8.45;;;7.00;99.90;;;;;;5053609;28;20025;-66
2023/12/19 10:13:30;;;;;;;8.77;7.88;;;7.00;99.90;;;;;;5053358;28;20411;-66
2023/12/19 10:16:06;;;;;;;11.80;8.85;;;7.00;99.90;;;;;;5052926;28;20418;-66
2023/12/19 10:18:33;;;;;;;9.90;8.88;;;7.10;99.90;;;;;;5053252;28;20023;-66
2023/12/19 10:21:05;;;;;;;10.65;9.30;;;7.10;99.90;;;;;;5052144;28;20083;-65
2023/12/19 10:23:41;;;;;;;10.18;9.18;;;7.20;99.90;;;;;;5052589;28;20052;-65
2023/12/19 10:26:07;;;;;;;10.35;8.63;;;7.20;99.90;;;;;;5052910;28;20029;-66
2023/12/19 10:28:33;;;;;;;9.90;8.90;;;7.20;99.90;;;;;;5052800;28;20059;-66
2023/12/19 10:31:15;;;;;;;11.85;9.05;;;7.20;99.90;;;;;;5052973;28;20017;-65
2023/12/19 10:33:45;;;;;;;12.23;9.68;;;7.30;99.90;;;;;;5052210;28;20047;-66
2023/12/19 10:36:24;;;;;;;13.15;10.63;;;7.30;99.90;;;;;;5052370;28;20028;-66
2023/12/19 10:38:50;;;;;;;10.73;9.52;;;7.40;99.90;;;;;;5052365;28;20025;-66
2023/12/19 10:41:30;;;;;;;9.02;8.10;;;7.40;99.90;;;;;;5052366;28;20033;-66
2023/12/19 10:43:57;;;;;;;8.27;7.47;;;7.50;99.90;;;;;;5052302;28;20013;-66
2023/12/19 10:46:33;;;;;;;8.20;7.50;;;7.50;99.90;;;;;;5052408;28;20040;-67
2023/12/19 10:49:03;;;;;;;8.43;7.50;;;7.50;99.90;;;;;;5052474;28;20025;-66
2023/12/19 10:51:33;;;;;;;8.32;7.53;;;7.60;99.90;;;;;;5052178;28;20017;-66
2023/12/19 10:54:14;;;;;;;8.48;7.63;;;7.60;99.90;;;;;;5052301;28;20044;-66
2023/12/19 10:56:46;;;;;;;11.82;10.82;;;7.60;99.90;;;;;;5052063;28;20116;-66
2023/12/19 10:59:36;;;;;;;10.80;9.90;;;7.70;99.90;;;;;;5052186;28;20124;-66
2023/12/19 11:02:08;;;;;;;10.65;8.98;;;7.70;99.90;;;;;;5009730;28;20428;-66
2023/12/19 11:04:40;;;;;;;9.05;8.25;;;7.70;99.90;;;;;;5009567;28;20045;-66
2023/12/19 11:07:12;;;;;;;7.85;7.15;;;7.70;99.90;;;;;;5010340;28;20061;-66
2023/12/19 11:09:40;;;;;;;8.13;7.32;;;7.70;99.90;;;;;;5010140;28;20148;-66
2023/12/19 11:12:07;;;;;;;7.80;7.10;;;7.80;99.90;;;;;;5010100;28;20029;-66
2023/12/19 11:14:33;;;;;;;9.75;8.60;;;7.70;99.90;;;;;;5009699;28;20116;-66
2023/12/19 11:17:09;;;;;;;9.38;7.93;;;7.80;99.90;;;;;;5010003;28;20165;-66
2023/12/19 11:19:45;;;;;;;9.70;8.70;;;8.00;99.90;;;;;;5009068;28;20519;-66
2023/12/19 11:22:31;;;;;;;9.02;8.15;;;8.10;99.90;;;;;;5009958;28;20040;-66
2023/12/19 11:25:09;;;;;;;11.40;10.27;;;8.30;99.90;;;;;;5009516;28;20045;-66
2023/12/19 11:27:41;;;;;;;10.27;9.23;;;8.40;99.90;;;;;;5010109;28;20440;-67
2023/12/19 11:30:52;;;;;;;10.10;8.40;;;8.50;99.90;;;;;;5009942;28;20030;-66
2023/12/19 11:33:29;;;;;;;9.45;8.00;;;8.60;99.90;;;;;;5006495;28;20099;-66
2023/12/19 11:35:55;;;;;;;9.07;8.15;;;8.60;99.90;;;;;;5009626;28;20038;-65
2023/12/19 11:38:25;;;;;;;8.73;7.53;;;8.60;99.90;;;;;;5014030;28;20033;-66
2023/12/19 11:40:53;;;;;;;8.65;7.85;;;8.70;99.90;;;;;;5031592;28;20033;-66
2023/12/19 11:43:39;;;;;;;7.80;7.10;;;8.70;99.90;;;;;;5031438;28;20484;-66
2023/12/19 11:46:07;;;;;;;7.45;6.75;;;8.60;99.90;;;;;;5027431;28;20034;-66
2023/12/19 11:48:36;;;;;;;8.13;7.43;;;8.50;99.90;;;;;;5031054;28;20040;-66
2023/12/19 11:51:03;;;;;;;8.63;7.82;;;8.40;99.90;;;;;;5031276;28;20030;-66
2023/12/19 11:53:29;;;;;;;9.05;8.25;;;8.30;99.90;;;;;;5031412;28;20037;-66
2023/12/19 11:56:12;;;;;;;9.25;8.35;;;8.30;99.90;;;;;;5031172;28;20037;-65
2023/12/19 11:58:48;;;;;;;8.73;7.85;;;8.30;99.90;;;;;;5031103;28;20033;-66
2023/12/19 12:01:14;;;;;;;9.82;7.68;;;8.30;99.90;;;;;;5030976;28;20132;-66
2023/12/19 12:03:40;;;;;;;8.32;7.43;;;8.30;99.90;;;;;;5031669;28;20021;-66
2023/12/19 12:06:08;;;;;;;8.70;7.78;;;8.20;99.90;;;;;;5031172;28;20071;-66
2023/12/19 12:08:34;;;;;;;8.88;8.07;;;8.20;99.90;;;;;;5031161;28;20518;-66
2023/12/19 12:11:05;;;;;;;8.18;7.38;;;8.20;99.90;;;;;;5031612;28;20468;-65
2023/12/19 12:13:32;;;;;;;8.73;7.88;;;8.20;99.90;;;;;;5031372;28;20072;-66
2023/12/19 12:15:59;;;;;;;8.73;7.82;;;8.20;99.90;;;;;;5030645;28;20037;-66
2023/12/19 12:18:26;;;;;;;8.50;7.70;;;8.20;99.90;;;;;;5031446;28;20041;-66
2023/12/19 12:21:08;;;;;;;9.05;8.13;;;8.20;99.90;;;;;;5043209;28;20033;-66
2023/12/19 12:23:34;;;;;;;10.05;7.75;;;8.30;99.90;;;;;;5050757;28;20075;-66
2023/12/19 12:25:59;;;;;;;10.75;9.75;;;8.30;99.90;;;;;;5050932;28;20625;-67
2023/12/19 12:28:26;;;;;;;10.20;9.20;;;8.30;99.90;;;;;;5050775;28;20050;-67
2023/12/19 12:30:57;;;;;;;9.05;8.13;;;8.30;99.90;;;;;;5050978;28;20179;-66
2023/12/19 12:33:24;;;;;;;9.70;8.80;;;8.30;99.90;;;;;;5050693;28;20548;-66
2023/12/19 12:35:50;;;;;;;8.25;7.32;;;8.30;99.90;;;;;;5050686;28;20068;-67
2023/12/19 12:38:18;;;;;;;8.68;7.88;;;8.30;99.90;;;;;;5050850;28;20053;-67
2023/12/19 12:41:01;;;;;;;8.85;8.05;;;8.30;99.90;;;;;;5050890;28;20040;-67